Time;durP1;ratioP1;P1;durP2;ratioP2;P2;SDS_P1;SDS_P2;PMS_P1;PMS_P2;Temp;Humidity;BMP_temperature;BMP_pressure;BME280_temperature;BME280_humidity;BME280_pressure;Samples;Min_cycle;Max_cycle;Signal;HPM_P1;HPM_P2
2023/12/15 06:34:07;;;;;;;7.17;4.67;;;7.30;98.80;;;7.60;64.16;100309.81;6183010;22;100393;31
2023/12/15 06:40:31;;;;;;;6.73;4.30;;;7.30;98.60;;;7.50;64.15;100307.78;6186557;22;98492;-84
2023/12/15 06:44:00;;;;;;;7.80;4.10;;;5.30;97.80;;;7.52;64.25;100313.00;6183765;22;113847;-87
2023/12/15 07:01:44;;;;;;;7.60;4.60;;;7.40;98.70;;;7.66;63.96;100335.50;6211640;22;98879;-86
2023/12/15 07:05:27;;;;;;;7.00;4.33;;;5.70;98.00;;;7.64;64.16;100337.66;6155265;22;114475;-85
2023/12/15 07:08:40;;;;;;;8.20;4.30;;;4.80;97.70;;;7.61;64.01;100340.91;6159797;22;114983;-86
2023/12/15 07:12:09;;;;;;;7.20;4.73;;;7.60;98.60;;;7.51;63.99;100344.34;6124258;22;123453;-86
2023/12/15 07:15:47;;;;;;;8.73;4.43;;;8.00;99.10;;;7.45;63.94;100362.72;6136307;22;123261;-86
2023/12/15 07:30:18;;;;;;;6.40;4.20;;;7.30;98.50;;;7.43;64.27;100370.38;6262419;22;96113;-86
2023/12/15 07:32:57;;;;;;;7.53;4.73;;;6.90;98.40;;;7.43;64.39;100364.88;6158526;22;113477;-86
2023/12/15 07:36:10;;;;;;;5.93;4.20;;;7.40;98.60;;;7.47;64.46;100379.78;6152058;22;122087;-85
2023/12/15 07:38:59;;;;;;;5.80;4.10;;;7.30;98.60;;;7.57;64.53;100389.25;6134014;22;124385;-84
2023/12/15 07:41:58;;;;;;;11.30;4.30;;;10.40;99.90;;;7.60;64.25;100386.81;6089179;23;112962;-83
2023/12/15 07:44:42;;;;;;;7.47;4.80;;;6.20;98.30;;;7.63;64.45;100385.47;6047828;23;113630;-86
2023/12/15 07:47:32;;;;;;;8.63;4.80;;;6.20;98.60;;;7.65;64.29;100392.41;6060931;23;123842;-85
2023/12/15 07:53:48;;;;;;;6.23;4.00;;;7.40;99.00;;;7.64;64.26;100393.50;6062266;23;115367;-84
2023/12/15 07:56:41;;;;;;;9.60;5.00;;;6.40;98.30;;;7.68;64.46;100391.06;6038707;23;113697;-86
2023/12/15 07:59:27;;;;;;;5.17;4.03;;;7.40;98.80;;;7.68;64.32;100391.06;6085697;23;123735;-87
2023/12/15 08:02:19;;;;;;;8.83;4.57;;;7.50;99.00;;;7.66;64.32;100402.34;6107786;23;123655;-87
2023/12/15 08:05:55;;;;;;;7.80;4.80;;;7.70;99.20;;;7.68;64.69;100404.81;6061177;23;115244;-87
2023/12/15 08:08:23;;;;;;;6.57;4.73;;;7.60;98.90;;;7.69;64.67;100406.50;6199246;22;114091;-84
2023/12/15 08:11:30;;;;;;;9.50;4.67;;;7.60;99.20;;;7.73;64.62;100405.72;6162651;22;123873;-86
2023/12/15 08:14:01;;;;;;;7.80;4.50;;;7.80;99.00;;;7.78;64.72;100407.72;6229831;22;121794;-86
2023/12/15 08:16:31;;;;;;;7.50;5.23;;;7.60;99.10;;;7.83;64.54;100424.28;6163810;22;113570;-85
2023/12/15 08:19:44;;;;;;;7.73;5.17;;;6.50;98.60;;;7.86;64.60;100422.94;6140711;23;112077;-87
2023/12/15 08:22:16;;;;;;;8.37;4.40;;;7.60;99.00;;;7.88;64.46;100416.13;6141406;23;123803;-86
2023/12/15 08:25:27;;;;;;;6.40;4.47;;;7.50;99.00;;;7.85;64.71;100421.31;6111255;23;123626;-85
2023/12/15 08:27:57;;;;;;;9.80;4.83;;;7.70;99.30;;;7.85;64.71;100422.13;6060882;23;114476;-86
2023/12/15 08:30:37;;;;;;;7.77;5.27;;;7.50;99.30;;;7.89;64.77;100431.53;6051607;23;112929;-87
2023/12/15 08:33:28;;;;;;;7.83;5.27;;;7.80;99.20;;;7.89;64.76;100428.78;6028359;23;122970;-87
2023/12/15 08:36:35;;;;;;;6.90;4.70;;;6.60;98.70;;;7.85;64.66;100430.38;5946305;23;123164;-87
2023/12/15 08:39:57;;;;;;;6.97;5.00;;;8.40;99.70;;;7.79;64.97;100439.66;5924624;23;113995;-87
2023/12/15 08:42:37;;;;;;;7.80;4.53;;;6.20;98.40;;;7.80;65.13;100444.06;5917392;23;113902;-87
2023/12/15 08:45:17;;;;;;;6.53;4.20;;;7.90;99.90;;;7.83;65.16;100454.56;5940344;23;122206;-88
2023/12/15 08:47:52;;;;;;;7.23;4.77;;;7.60;99.50;;;7.90;64.80;100451.66;5950164;23;122585;-86
2023/12/15 08:50:53;;;;;;;7.10;4.80;;;8.00;99.80;;;7.99;64.88;100472.13;6017152;23;112254;-87
2023/12/15 08:54:08;;;;;;;8.17;4.50;;;7.90;99.90;;;8.05;64.67;100464.75;5974674;23;112841;-88
2023/12/15 08:57:04;;;;;;;6.40;4.60;;;6.30;98.70;;;8.10;64.91;100462.09;5996722;23;123957;-86
2023/12/15 08:59:42;;;;;;;6.60;4.93;;;6.00;98.60;;;8.14;65.21;100463.22;5967175;23;123163;-86
2023/12/15 09:02:53;;;;;;;7.30;4.60;;;7.90;99.80;;;8.19;64.90;100477.06;5967424;23;116044;-86
2023/12/15 09:06:33;;;;;;;7.23;4.50;;;7.80;99.40;;;8.22;64.80;100487.59;5970787;23;115342;-86
2023/12/15 09:10:02;;;;;;;7.00;4.83;;;7.80;99.30;;;8.23;64.85;100478.22;5988975;23;125954;-87
2023/12/15 09:12:47;;;;;;;10.90;5.57;;;8.10;99.40;;;8.24;64.66;100479.88;5962454;23;124217;-86
2023/12/15 09:18:15;;;;;;;8.17;4.90;;;8.10;99.20;;;8.20;64.88;100476.00;5937193;23;114427;-87
2023/12/15 09:20:42;;;;;;;7.37;4.70;;;9.00;99.70;;;8.21;65.01;100477.63;5931065;23;122292;-87
2023/12/15 09:23:12;;;;;;;7.70;5.30;;;8.30;99.70;;;8.28;64.90;100480.22;5905320;23;123726;-88
2023/12/15 09:25:53;;;;;;;8.30;5.47;;;8.00;99.80;;;8.31;64.57;100488.78;5887396;23;114103;-86
2023/12/15 09:28:50;;;;;;;7.17;5.17;;;8.00;99.40;;;8.32;64.65;100498.72;5979464;23;114033;-86
2023/12/15 09:31:40;;;;;;;8.23;5.37;;;8.00;99.10;;;8.34;64.51;100496.53;6078291;23;123679;-86
2023/12/15 09:34:19;;;;;;;7.90;5.80;;;9.00;99.90;;;8.34;64.45;100499.28;6006774;23;123213;-86
2023/12/15 09:36:52;;;;;;;8.97;5.73;;;8.30;99.50;;;8.37;64.46;100501.53;6063878;23;112628;-86
2023/12/15 09:39:22;;;;;;;6.13;4.80;;;8.40;99.30;;;8.34;64.28;100499.28;6058360;23;114702;-86
2023/12/15 09:41:57;;;;;;;8.47;5.90;;;8.10;99.10;;;8.35;64.02;100502.88;6056692;23;123884;-85
2023/12/15 09:44:27;;;;;;;7.60;4.87;;;5.30;98.00;;;8.32;63.86;100503.38;6040314;23;122264;-85
2023/12/15 09:47:02;;;;;;;9.37;5.63;;;8.10;98.90;;;8.34;64.02;100501.22;6068471;23;114461;-85
2023/12/15 09:49:39;;;;;;;8.87;5.60;;;8.10;99.40;;;8.37;64.15;100500.69;6108209;23;113607;-87
2023/12/15 09:52:45;;;;;;;9.70;5.43;;;5.70;98.00;;;8.38;64.42;100511.47;6080648;23;123123;-86
2023/12/15 09:56:24;;;;;;;9.00;5.87;;;9.20;99.40;;;8.38;64.26;100500.47;6053710;23;122376;-86
2023/12/15 09:58:53;;;;;;;7.73;5.20;;;9.50;99.50;;;8.40;64.16;100503.81;6081598;23;114106;-86
2023/12/15 10:01:25;;;;;;;10.80;6.03;;;8.20;99.30;;;8.46;64.47;100501.94;6025562;23;114807;-86
2023/12/15 10:03:55;;;;;;;10.73;5.80;;;8.10;98.90;;;8.50;64.12;100500.34;6046496;23;123939;-86
2023/12/15 10:06:34;;;;;;;8.37;5.53;;;8.20;99.00;;;8.55;64.06;100508.69;6095223;22;122387;-87
2023/12/15 10:09:00;;;;;;;7.80;5.10;;;8.20;99.00;;;8.60;64.32;100513.44;6068813;22;112935;-86
2023/12/15 10:11:37;;;;;;;9.67;6.03;;;8.30;99.40;;;8.69;64.11;100514.63;6135985;22;113567;-86
2023/12/15 10:14:07;;;;;;;7.43;5.50;;;8.40;99.30;;;8.76;64.01;100519.97;6070486;23;122809;-84
2023/12/15 10:16:49;;;;;;;10.90;5.60;;;6.50;98.40;;;8.85;64.06;100515.63;6220050;22;123566;-85
2023/12/15 10:19:38;;;;;;;7.37;4.83;;;8.50;99.20;;;8.92;63.75;100505.25;6201769;22;112809;-85
2023/12/15 10:22:11;;;;;;;8.20;5.77;;;8.50;99.10;;;8.99;63.54;100516.06;6164179;22;112696;-86
2023/12/15 10:24:44;;;;;;;8.17;4.70;;;8.60;99.20;;;9.04;63.86;100527.97;6073938;23;123650;-84
2023/12/15 10:27:40;;;;;;;9.60;6.00;;;8.90;99.50;;;9.04;63.28;100527.13;6079914;23;122991;-85
2023/12/15 10:30:12;;;;;;;9.00;5.83;;;7.40;98.40;;;9.06;63.44;100538.75;6121300;23;112887;-85
2023/12/15 10:32:41;;;;;;;8.83;5.83;;;8.80;98.80;;;9.04;63.27;100529.91;6065506;23;113442;-85
2023/12/15 10:35:31;;;;;;;10.20;5.97;;;8.70;98.70;;;9.07;63.20;100537.63;6020617;23;124678;-86
2023/12/15 10:38:07;;;;;;;7.07;5.50;;;8.80;98.80;;;9.11;63.38;100521.41;6076788;23;123188;-86
2023/12/15 10:40:38;;;;;;;8.33;5.50;;;8.80;98.90;;;9.16;63.25;100524.22;6073001;23;114136;-87
2023/12/15 10:43:07;;;;;;;8.63;5.60;;;11.30;99.30;;;9.19;63.13;100529.22;6048758;23;113295;-84
2023/12/15 10:45:35;;;;;;;7.47;5.57;;;8.90;98.70;;;9.22;63.23;100524.00;6000001;23;122124;-84
2023/12/15 10:48:04;;;;;;;6.50;4.93;;;12.00;99.70;;;9.23;62.84;100531.19;6026883;23;123178;-85
2023/12/15 10:50:48;;;;;;;7.23;5.23;;;8.90;98.70;;;9.31;62.93;100534.56;6049308;23;113597;-86
2023/12/15 10:53:56;;;;;;;10.50;5.97;;;9.10;98.80;;;9.34;62.51;100536.81;6020563;23;114869;-85
2023/12/15 10:56:29;;;;;;;8.30;5.53;;;9.20;98.70;;;9.31;62.53;100532.66;6085305;23;124075;-85
2023/12/15 10:59:07;;;;;;;7.47;4.90;;;9.00;98.50;;;9.31;62.34;100529.06;6026228;23;121447;-85
2023/12/15 11:02:15;;;;;;;7.30;4.97;;;9.00;98.50;;;9.31;62.43;100531.81;6033604;23;113161;-86
2023/12/15 11:04:48;;;;;;;6.53;4.63;;;9.20;98.50;;;9.33;62.14;100532.41;6003700;23;112391;-85
2023/12/15 11:07:39;;;;;;;6.70;4.80;;;9.00;98.40;;;9.32;62.18;100533.47;6030285;23;123925;-85
2023/12/15 11:10:14;;;;;;;13.33;5.23;;;9.10;98.20;;;9.30;62.37;100531.00;6000380;23;122386;-86
2023/12/15 11:12:47;;;;;;;5.13;4.63;;;6.50;97.20;;;9.33;62.22;100535.16;5991481;23;113248;-85
2023/12/15 11:15:34;;;;;;;8.70;4.63;;;9.00;98.30;;;9.32;61.97;100537.06;6038553;23;112234;-86
2023/12/15 11:18:15;;;;;;;12.03;5.00;;;7.70;97.60;;;9.31;62.17;100531.81;6026593;23;123606;-85
2023/12/15 11:20:51;;;;;;;11.73;4.13;;;10.10;98.30;;;9.33;61.69;100543.44;6048209;23;123213;-86
2023/12/15 11:28:08;;;;;;;6.50;3.90;;;9.20;97.90;;;9.32;61.75;100555.53;6084002;23;115035;-86
2023/12/15 11:30:42;;;;;;;4.90;3.37;;;9.10;97.90;;;9.34;61.73;100553.34;6132709;22;123890;-87
2023/12/15 11:33:47;;;;;;;5.57;4.10;;;12.40;98.70;;;9.37;61.11;100552.81;6115808;23;122850;-87
2023/12/15 11:36:47;;;;;;;5.00;3.90;;;9.20;97.80;;;9.36;61.00;100562.22;6080716;23;114412;-87
2023/12/15 11:39:22;;;;;;;5.73;3.43;;;6.10;96.30;;;9.33;61.02;100557.22;6107642;23;113905;-87
2023/12/15 11:41:56;;;;;;;5.83;4.00;;;9.10;97.50;;;9.33;61.23;100557.22;6074077;23;123062;-86
2023/12/15 11:44:35;;;;;;;5.33;3.27;;;9.10;97.80;;;9.36;61.27;100559.44;6107399;23;123007;-86
2023/12/15 11:47:13;;;;;;;5.17;3.90;;;9.10;97.60;;;9.38;61.00;100563.63;6098774;23;114638;-86
2023/12/15 11:49:47;;;;;;;5.97;4.30;;;9.20;97.60;;;9.39;60.97;100565.28;6082218;23;113298;-87
2023/12/15 11:52:15;;;;;;;4.50;3.80;;;9.50;97.70;;;9.41;61.51;100560.34;6102306;23;123657;-86
2023/12/15 11:54:46;;;;;;;4.07;3.30;;;9.20;97.60;;;9.47;61.28;100563.97;6022268;23;122708;-88
2023/12/15 11:58:10;;;;;;;4.60;3.40;;;9.30;97.70;;;9.47;61.46;100544.66;6003847;23;112973;-87
2023/12/15 12:00:59;;;;;;;6.87;3.77;;;9.20;97.80;;;9.51;61.54;100551.31;5980028;23;113121;-87
2023/12/15 12:03:58;;;;;;;3.93;3.13;;;9.30;97.60;;;9.53;61.07;100562.91;6017140;23;122103;-86
2023/12/15 12:07:20;;;;;;;5.60;3.27;;;9.40;97.60;;;9.57;61.27;100572.34;5986507;23;123884;-88
2023/12/15 12:09:58;;;;;;;3.27;2.90;;;9.30;97.50;;;9.60;60.85;100571.81;5940964;23;114874;-88
2023/12/15 12:12:48;;;;;;;4.03;2.90;;;11.70;98.80;;;9.65;61.10;100569.09;6011160;23;114827;-87
2023/12/15 12:16:20;;;;;;;4.30;3.20;;;9.40;97.60;;;9.71;60.67;100553.41;5996731;23;122282;-88
2023/12/15 12:19:11;;;;;;;4.23;3.23;;;9.40;97.50;;;9.75;60.43;100565.56;5990741;23;124517;-88
2023/12/15 12:22:12;;;;;;;4.13;3.13;;;9.50;97.60;;;9.74;60.33;100561.16;6021031;23;112481;-88
2023/12/15 12:25:07;;;;;;;5.77;3.13;;;9.40;97.30;;;9.74;60.29;100555.66;5978241;23;112403;-87
2023/12/15 12:28:55;;;;;;;5.67;3.10;;;7.40;96.60;;;9.74;60.23;100559.22;6088190;23;122503;-87
2023/12/15 12:32:38;;;;;;;3.23;2.80;;;9.50;97.20;;;9.69;60.68;100556.44;6079989;23;124577;-88
2023/12/15 12:35:15;;;;;;;4.77;2.90;;;9.70;97.30;;;9.67;60.30;100558.63;6058994;23;113462;-86
2023/12/15 12:37:49;;;;;;;4.23;2.87;;;9.50;97.30;;;9.67;60.34;100550.38;6013341;23;112792;-87
2023/12/15 12:40:39;;;;;;;3.27;2.60;;;9.50;97.20;;;9.70;60.40;100552.59;6025214;23;122677;-87
2023/12/15 12:43:20;;;;;;;3.20;2.50;;;9.50;97.20;;;9.75;60.37;100554.53;6046519;23;123609;-88
2023/12/15 12:46:14;;;;;;;5.50;3.00;;;9.50;97.20;;;9.72;60.64;100555.94;6027644;23;113565;-87
2023/12/15 12:49:17;;;;;;;3.50;2.90;;;9.50;97.10;;;9.72;60.40;100561.44;6054837;23;114608;-87
2023/12/15 12:52:34;;;;;;;5.17;3.30;;;8.30;96.60;;;9.68;60.68;100565.81;6034968;23;123990;-86
2023/12/15 12:55:19;;;;;;;5.60;2.97;;;9.50;97.10;;;9.65;60.29;100560.81;6056742;23;123319;-88
2023/12/15 12:58:51;;;;;;;5.40;3.27;;;7.10;96.20;;;9.62;60.32;100553.06;5995505;23;114061;-87
2023/12/15 13:02:06;;;;;;;4.80;3.47;;;9.60;97.10;;;9.63;60.56;100562.19;6113148;23;113390;-87
2023/12/15 13:05:21;;;;;;;5.50;3.67;;;9.80;97.30;;;9.62;60.75;100561.34;6060013;23;122649;-87
2023/12/15 13:08:21;;;;;;;3.73;2.63;;;9.40;97.00;;;9.63;60.66;100563.00;6035492;23;123549;-87
2023/12/15 13:11:24;;;;;;;4.17;2.80;;;9.40;97.10;;;9.66;60.67;100570.75;6071949;23;114041;-87
2023/12/15 13:15:09;;;;;;;4.60;2.63;;;9.40;97.10;;;9.61;60.94;100562.44;6105271;23;112971;-87
2023/12/15 13:18:00;;;;;;;4.93;3.00;;;9.50;97.10;;;9.68;60.49;100568.56;5990544;23;122526;-87
2023/12/15 13:21:56;;;;;;;5.17;2.90;;;9.50;97.20;;;9.81;60.43;100574.75;5067094;27;96136;-87
2023/12/15 13:24:52;;;;;;;5.07;3.00;;;9.60;97.20;;;9.84;60.69;100579.75;5025509;28;105103;-87
2023/12/15 13:28:35;;;;;;;2.67;2.33;;;9.60;97.30;;;9.89;60.38;100590.84;4966096;28;125994;-87
2023/12/15 13:32:03;;;;;;;2.90;2.03;;;9.60;97.30;;;9.90;60.50;100579.50;5016921;28;123708;-87
2023/12/15 13:34:54;;;;;;;3.27;2.40;;;9.60;97.30;;;9.92;60.29;100587.53;4980934;28;106449;-87
2023/12/15 13:38:09;;;;;;;3.27;2.27;;;10.90;97.30;;;9.88;60.36;100583.63;4969129;28;106896;-86
2023/12/15 13:41:48;;;;;;;2.00;1.50;;;7.10;96.00;;;9.81;60.45;100585.81;4926884;28;126061;-86
2023/12/15 13:44:48;;;;;;;2.80;1.50;;;9.50;97.10;;;9.79;59.95;100582.47;4906771;28;123612;-87
2023/12/15 13:48:11;;;;;;;1.90;1.30;;;9.50;97.10;;;9.77;60.53;100598.44;4911810;28;108476;-85
2023/12/15 13:51:22;;;;;;;2.67;1.60;;;9.50;97.10;;;9.80;60.30;100596.00;4852891;28;106061;-86
2023/12/15 13:54:45;;;;;;;3.93;1.93;;;9.50;97.40;;;9.84;60.80;100596.31;4885382;28;124378;-87
2023/12/15 13:57:12;;;;;;;1.60;1.33;;;7.60;96.40;;;9.88;60.56;100597.44;4873492;29;122843;-88
2023/12/15 13:59:45;;;;;;;2.20;1.67;;;9.60;97.30;;;9.90;60.26;100606.28;4856119;29;106848;-87
2023/12/15 14:03:10;;;;;;;1.30;1.20;;;9.60;97.30;;;9.83;59.88;100608.44;4883407;28;107241;-86
2023/12/15 14:06:17;;;;;;;2.03;1.50;;;9.70;97.20;;;9.76;60.03;100605.91;4850743;29;123656;-86
2023/12/15 14:09:25;;;;;;;2.27;1.57;;;9.50;96.90;;;9.74;60.17;100611.66;4891752;28;122464;-86
2023/12/15 14:12:53;;;;;;;4.03;1.70;;;9.60;97.00;;;9.75;60.04;100620.78;4876215;29;106577;-86
2023/12/15 14:15:40;;;;;;;2.20;1.50;;;9.60;97.00;;;9.72;60.48;100624.94;4875120;29;107000;-86
2023/12/15 14:18:33;;;;;;;2.07;1.30;;;9.50;97.00;;;9.72;60.63;100638.72;4841697;29;124099;-85
2023/12/15 14:21:19;;;;;;;1.97;1.43;;;7.50;96.20;;;9.74;60.03;100642.03;4856551;29;123564;-86
2023/12/15 14:24:17;;;;;;;2.40;1.53;;;9.50;97.00;;;9.71;60.00;100648.09;4888202;28;108035;-87
2023/12/15 14:26:48;;;;;;;1.83;1.63;;;9.60;97.40;;;9.66;60.37;100652.72;4850493;28;107231;-87
2023/12/15 14:29:34;;;;;;;3.10;1.50;;;9.50;97.30;;;9.68;60.36;100658.81;4852520;29;123181;-85
2023/12/15 14:32:09;;;;;;;1.77;1.17;;;9.50;97.10;;;9.67;60.17;100655.25;4800440;29;122816;-85
2023/12/15 14:34:51;;;;;;;1.80;1.50;;;9.40;97.20;;;9.65;60.23;100653.84;4806445;29;107217;-86
2023/12/15 14:37:42;;;;;;;2.80;1.33;;;8.40;96.50;;;9.64;60.03;100652.97;4795543;29;105672;-86
2023/12/15 14:40:32;;;;;;;1.40;1.10;;;9.50;97.00;;;9.65;60.62;100660.19;4800374;29;123414;-87
2023/12/15 14:43:25;;;;;;;2.90;1.30;;;9.50;97.10;;;9.64;60.20;100664.00;4856550;29;123658;-87
2023/12/15 14:45:53;;;;;;;4.00;1.47;;;12.30;97.80;;;9.61;60.51;100664.53;4794761;29;106156;-86
2023/12/15 14:48:56;;;;;;;1.83;1.33;;;9.40;97.30;;;9.56;60.26;100660.91;4824122;29;105987;-86
2023/12/15 14:51:40;;;;;;;2.73;1.30;;;9.60;97.10;;;9.58;60.44;100675.28;4822007;29;124501;-87
2023/12/15 14:54:22;;;;;;;1.57;1.30;;;9.50;97.60;;;9.59;60.58;100677.78;4827371;29;122296;-87
2023/12/15 14:57:13;;;;;;;2.10;1.53;;;11.50;97.70;;;9.57;60.55;100663.41;4824936;29;107131;-88
2023/12/15 15:00:07;;;;;;;4.07;1.80;;;9.40;97.40;;;9.57;60.65;100668.94;4838399;29;108013;-86
2023/12/15 15:02:55;;;;;;;3.20;1.50;;;9.30;97.10;;;9.53;60.69;100667.75;4901224;28;122132;-86
2023/12/15 15:05:35;;;;;;;3.13;1.43;;;11.80;97.70;;;9.49;60.73;100672.16;4897722;28;121629;-88
2023/12/15 15:08:57;;;;;;;2.60;1.63;;;9.50;97.10;;;9.45;60.59;100682.03;4894956;28;108204;-86
2023/12/15 15:12:31;;;;;;;2.10;1.50;;;9.30;97.10;;;9.43;60.91;100675.91;4899996;28;107311;-87
2023/12/15 15:15:54;;;;;;;3.80;1.87;;;9.40;97.10;;;9.47;60.94;100674.31;4861863;28;122911;-87
2023/12/15 15:20:53;;;;;;;3.70;1.70;;;9.30;97.10;;;9.54;60.99;100679.63;5021726;28;107148;-85
2023/12/15 15:24:39;;;;;;;2.73;1.63;;;9.60;97.40;;;9.47;60.68;100683.44;5035935;28;107458;-85
2023/12/15 15:27:34;;;;;;;4.70;2.07;;;9.80;97.30;;;9.49;61.00;100689.53;5003158;28;123727;-84
2023/12/15 15:30:42;;;;;;;2.77;1.60;;;9.30;97.20;;;9.50;61.11;100690.34;5003599;28;123744;-85
2023/12/15 15:34:04;;;;;;;1.60;1.50;;;9.40;97.40;;;9.50;61.14;100684.84;5013169;28;106451;-86
2023/12/15 15:37:23;;;;;;;2.60;1.80;;;9.30;97.20;;;9.44;60.73;100688.66;5025876;28;107854;-85
2023/12/15 15:40:29;;;;;;;2.00;1.67;;;10.60;97.20;;;9.40;61.20;100690.25;5006708;28;124031;-85
2023/12/15 15:43:50;;;;;;;2.20;1.67;;;9.20;97.20;;;9.39;61.10;100680.31;4977538;28;123364;-86
2023/12/15 15:46:26;;;;;;;2.67;1.60;;;9.20;97.20;;;9.45;61.33;100679.25;5018787;28;107605;-84
2023/12/15 15:48:57;;;;;;;2.90;1.40;;;6.60;96.20;;;9.45;61.09;100670.97;5015623;28;105872;-85
2023/12/15 15:51:46;;;;;;;3.00;1.53;;;9.40;97.80;;;9.49;61.35;100681.25;4992231;28;122037;-86
2023/12/15 15:55:09;;;;;;;2.43;1.60;;;9.30;97.30;;;9.53;61.33;100684.31;4940584;28;122253;-86
2023/12/15 15:58:28;;;;;;;1.87;1.37;;;8.50;97.00;;;9.56;60.99;100694.84;4902446;28;107884;-87
2023/12/15 16:01:25;;;;;;;4.30;1.80;;;9.40;97.80;;;9.53;61.35;100700.88;4913537;28;106274;-86
2023/12/15 16:04:55;;;;;;;2.67;1.50;;;9.30;97.40;;;9.55;61.25;100695.09;4901287;28;123606;-87
2023/12/15 16:07:49;;;;;;;1.87;1.40;;;9.50;97.50;;;9.58;60.92;100698.19;4786640;29;122923;-86
2023/12/15 16:10:43;;;;;;;2.23;1.60;;;8.50;97.10;;;9.58;61.30;100691.81;4808765;29;105516;-87
2023/12/15 16:28:13;;;;;;;2.00;1.50;;;9.40;97.60;;;9.65;61.42;100715.38;5005827;28;98054;-85
2023/12/15 16:30:43;;;;;;;3.13;1.63;;;9.80;97.80;;;9.63;61.67;100712.03;4995219;28;123191;-86
2023/12/15 16:33:19;;;;;;;3.20;1.67;;;9.30;97.60;;;9.64;61.23;100713.69;4981571;28;107150;-85
2023/12/15 16:35:46;;;;;;;2.23;1.63;;;9.70;97.80;;;9.65;61.33;100720.91;4991552;28;106854;-82
2023/12/15 16:38:12;;;;;;;1.90;1.57;;;11.10;98.00;;;9.65;61.37;100720.91;4953257;28;122180;-83
2023/12/15 16:40:39;;;;;;;3.53;1.60;;;12.00;98.60;;;9.69;61.30;100732.25;4981263;28;122434;-85
2023/12/15 16:43:11;;;;;;;2.63;1.73;;;11.20;98.70;;;9.71;61.65;100741.94;4999675;28;106513;-84
2023/12/15 16:45:50;;;;;;;4.70;2.70;;;9.40;98.40;;;9.72;61.65;100751.03;4982022;28;107486;-87
2023/12/15 16:48:44;;;;;;;2.90;1.90;;;8.70;97.90;;;9.71;61.67;100764.00;4992938;28;125533;-86
2023/12/15 16:51:27;;;;;;;2.73;1.70;;;9.40;97.90;;;9.71;61.71;100760.44;4948529;28;122244;-87
2023/12/15 16:53:54;;;;;;;3.50;1.80;;;9.40;97.80;;;9.70;61.70;100762.34;4917359;28;106311;-82
2023/12/15 16:56:21;;;;;;;2.23;1.60;;;11.30;98.20;;;9.65;61.71;100754.00;4887474;28;106500;-86
2023/12/15 16:58:48;;;;;;;4.27;2.10;;;9.40;98.00;;;9.66;61.84;100752.09;4889786;28;123909;-85
2023/12/15 17:01:28;;;;;;;2.73;1.80;;;9.40;97.90;;;9.67;61.61;100750.97;4910814;28;121866;-86
2023/12/15 17:04:03;;;;;;;2.73;1.80;;;9.40;98.80;;;9.66;61.55;100747.38;4879776;28;106708;-85
2023/12/15 17:06:51;;;;;;;2.10;1.90;;;6.60;96.70;;;9.64;61.40;100755.09;4855550;28;105514;-87
2023/12/15 17:09:30;;;;;;;4.37;1.97;;;8.50;97.30;;;9.64;61.38;100741.28;4827333;29;123682;-85
2023/12/15 17:11:58;;;;;;;2.50;1.97;;;9.60;97.80;;;9.60;61.66;100740.16;4876302;28;123436;-85
2023/12/15 17:14:27;;;;;;;4.70;2.13;;;9.70;97.90;;;9.59;61.84;100738.50;4840592;29;106657;-85
2023/12/15 17:17:01;;;;;;;2.23;1.70;;;9.40;97.70;;;9.61;61.44;100749.25;4873758;28;105298;-85
2023/12/15 17:19:36;;;;;;;2.67;2.00;;;9.40;98.20;;;9.62;61.92;100754.53;4833378;29;123757;-84
2023/12/15 17:22:08;;;;;;;2.90;1.70;;;10.30;98.30;;;9.62;61.67;100762.81;4832152;29;122382;-86
2023/12/15 17:24:42;;;;;;;3.10;1.77;;;11.30;98.30;;;9.65;61.86;100758.72;4850513;28;107193;-85
2023/12/15 17:27:08;;;;;;;3.30;2.03;;;11.40;98.20;;;9.65;61.75;100758.72;4841337;29;105765;-85
2023/12/15 17:29:39;;;;;;;4.07;2.33;;;9.80;98.40;;;9.67;61.75;100771.16;4834793;29;123066;-85
2023/12/15 17:32:06;;;;;;;5.30;2.50;;;10.00;98.70;;;9.68;62.37;100781.09;4829966;29;121692;-86
2023/12/15 17:34:36;;;;;;;2.30;1.90;;;9.40;98.10;;;9.66;62.37;100779.69;4869595;28;106402;-81
2023/12/15 17:37:28;;;;;;;3.70;2.83;;;9.50;98.30;;;9.66;62.41;100793.47;4900127;28;107458;-85
2023/12/15 17:39:56;;;;;;;5.90;3.33;;;9.50;98.10;;;9.65;62.54;100797.34;4888340;28;123635;-84
2023/12/15 17:42:24;;;;;;;4.10;2.50;;;8.40;97.70;;;9.66;62.52;100810.03;4874693;28;122143;-83
2023/12/15 17:44:51;;;;;;;3.80;2.77;;;9.40;98.90;;;9.66;62.25;100810.03;4894063;28;106722;-83
2023/12/15 17:47:17;;;;;;;3.43;2.60;;;9.50;98.30;;;9.69;62.25;100813.13;4906230;28;107481;-83
2023/12/15 17:49:44;;;;;;;3.00;2.20;;;9.40;98.40;;;9.70;62.65;100811.22;4901849;28;123712;-83
2023/12/15 17:52:29;;;;;;;4.33;2.43;;;11.90;99.90;;;9.73;62.12;100825.31;4957811;28;122943;-85
2023/12/15 17:54:58;;;;;;;5.23;2.60;;;9.60;98.70;;;9.70;62.45;100816.72;4949406;28;106149;-86
2023/12/15 17:58:41;;;;;;;2.90;1.87;;;9.40;98.40;;;9.66;62.40;100816.38;4916245;28;106506;-86
2023/12/15 18:01:09;;;;;;;2.10;1.70;;;8.10;97.70;;;9.65;62.29;100814.72;4913219;28;123494;-85
2023/12/15 18:03:38;;;;;;;3.87;2.00;;;7.90;97.40;;;9.63;62.41;100802.28;4898937;28;122447;-85
2023/12/15 18:06:12;;;;;;;5.33;2.47;;;9.40;98.90;;;9.61;62.24;100810.81;4951888;28;109191;-85
2023/12/15 18:08:45;;;;;;;5.93;1.73;;;10.30;98.60;;;9.63;62.13;100810.56;4946218;28;107136;-86
2023/12/15 18:11:53;;;;;;;3.27;2.10;;;9.30;98.20;;;9.59;62.36;100821.28;4940421;28;123563;-87
2023/12/15 18:14:37;;;;;;;4.37;2.10;;;9.30;98.00;;;9.59;62.31;100829.56;4919506;28;122827;-84
2023/12/15 18:17:05;;;;;;;3.27;1.63;;;9.40;98.20;;;9.57;62.23;100840.03;4921855;28;109446;-84
2023/12/15 18:19:32;;;;;;;4.53;2.20;;;9.30;98.80;;;9.57;62.33;100834.50;4928070;28;108271;-85
2023/12/15 18:22:05;;;;;;;3.93;2.13;;;9.30;98.70;;;9.58;62.14;100833.41;4938065;28;123363;-86
2023/12/15 18:24:50;;;;;;;3.00;2.00;;;9.30;98.20;;;9.54;62.31;100843.28;4879171;28;122362;-85
2023/12/15 18:27:35;;;;;;;1.97;1.60;;;9.30;98.20;;;9.49;62.42;100846.81;4950939;28;107451;-86
2023/12/15 18:30:23;;;;;;;2.53;2.00;;;10.40;98.20;;;9.50;62.70;100848.47;4926714;28;108901;-85
2023/12/15 18:33:30;;;;;;;3.43;1.87;;;9.60;98.50;;;9.50;62.64;100855.91;4949739;28;123062;-86
2023/12/15 18:36:26;;;;;;;2.60;1.73;;;9.50;98.30;;;9.51;63.06;100865.88;4949854;28;123119;-86
2023/12/15 18:39:12;;;;;;;3.80;1.90;;;9.40;98.30;;;9.52;62.65;100870.31;4894726;28;108943;-85
2023/12/15 18:42:12;;;;;;;1.83;1.63;;;9.30;98.40;;;9.52;62.77;100867.53;4938683;28;108882;-87
2023/12/15 18:45:03;;;;;;;5.20;2.10;;;8.90;98.20;;;9.52;63.13;100878.59;4913156;28;124961;-85
2023/12/15 18:47:40;;;;;;;4.33;1.77;;;10.90;98.70;;;9.54;62.87;100878.31;4924349;28;122263;-87
2023/12/15 18:51:02;;;;;;;3.83;1.77;;;9.40;98.80;;;9.55;63.27;100886.34;4921947;28;106836;-87
2023/12/15 18:53:42;;;;;;;4.87;2.10;;;9.90;98.70;;;9.57;63.12;100889.69;4957289;28;107319;-86
2023/12/15 18:56:24;;;;;;;4.00;2.20;;;9.40;98.60;;;9.58;63.06;100874.78;4931194;28;123871;-86
2023/12/15 18:59:05;;;;;;;2.80;1.60;;;9.30;98.60;;;9.59;62.90;100879.25;4931383;28;123848;-86
2023/12/15 19:01:38;;;;;;;3.13;1.80;;;9.30;98.70;;;9.59;62.99;100870.97;4939878;28;107716;-86
2023/12/15 19:04:38;;;;;;;3.10;2.00;;;9.30;98.90;;;9.58;63.19;100874.78;4928204;28;106991;-86
2023/12/15 19:08:03;;;;;;;3.87;2.07;;;9.30;98.60;;;9.58;63.20;100857.41;4900937;28;123301;-87
2023/12/15 19:10:45;;;;;;;2.47;2.20;;;8.40;98.20;;;9.61;63.50;100870.69;4934507;28;123582;-86
2023/12/15 19:13:17;;;;;;;2.17;1.97;;;9.30;99.10;;;9.62;63.22;100859.41;4917524;28;109572;-86
2023/12/15 19:16:12;;;;;;;3.80;2.60;;;9.40;98.80;;;9.64;63.39;100851.69;4932133;28;109486;-87
2023/12/15 19:19:11;;;;;;;2.37;1.90;;;9.60;98.80;;;9.64;63.35;100857.19;4909616;28;122935;-86
2023/12/15 19:22:34;;;;;;;2.83;2.20;;;9.30;98.70;;;9.61;63.34;100857.72;4888463;28;122470;-86
2023/12/15 19:25:38;;;;;;;6.53;2.90;;;11.10;98.90;;;9.62;63.27;100856.66;4946097;28;109124;-86
2023/12/15 19:28:18;;;;;;;4.67;2.83;;;9.40;98.70;;;9.62;63.37;100851.13;4907078;28;108146;-87